createdAt,value
2018-10-17T00:01:18.613Z,57.98
2018-10-17T00:03:45.437Z,58.02
2018-10-17T00:06:12.344Z,57.13
2018-10-17T00:08:40.012Z,57.76
2018-10-17T00:11:06.878Z,57.34
2018-10-17T00:13:33.735Z,57.24
2018-10-17T00:16:00.570Z,57.10
2018-10-17T00:18:27.418Z,57.06
2018-10-17T00:20:54.796Z,57.02
2018-10-17T00:23:21.628Z,57.29
2018-10-17T00:25:49.406Z,56.84
2018-10-17T00:28:16.215Z,56.54
2018-10-17T00:30:43.121Z,56.13
2018-10-17T00:33:09.958Z,56.82
2018-10-17T00:35:36.888Z,56.58
2018-10-17T00:38:04.741Z,56.76
2018-10-17T00:40:31.670Z,56.60
2018-10-17T00:42:58.479Z,56.77
2018-10-17T00:45:25.733Z,56.02
2018-10-17T00:47:53.462Z,56.81
2018-10-17T00:50:20.368Z,56.87
2018-10-17T00:52:47.209Z,57.01
2018-10-17T00:55:15.190Z,57.59
2018-10-17T00:57:42.006Z,56.70
2018-10-17T01:00:09.866Z,56.55
2018-10-17T01:02:37.648Z,56.88
2018-10-17T01:05:05.528Z,56.96
2018-10-17T01:07:33.400Z,56.84
2018-10-17T01:10:00.312Z,57.04
2018-10-17T01:12:27.149Z,57.72
2018-10-17T01:14:53.946Z,56.75
2018-10-17T01:17:20.789Z,56.51
2018-10-17T01:19:47.616Z,56.36
2018-10-17T01:22:14.454Z,56.29
2018-10-17T01:24:41.317Z,56.09
2018-10-17T01:27:09.137Z,55.72
2018-10-17T01:29:36.083Z,55.41
2018-10-17T01:32:02.928Z,56.17
2018-10-17T01:34:29.770Z,56.10
2018-10-17T01:36:56.645Z,56.45
2018-10-17T01:39:23.464Z,56.62
2018-10-17T01:41:50.388Z,56.13
2018-10-17T01:44:17.235Z,56.83
2018-10-17T01:46:44.938Z,56.44
2018-10-17T01:49:11.911Z,56.72
2018-10-17T01:51:39.715Z,56.80
2018-10-17T01:54:07.604Z,56.46
2018-10-17T01:56:35.446Z,56.67
2018-10-17T01:59:03.307Z,56.76
2018-10-17T02:01:31.264Z,57.08
2018-10-17T02:03:59.146Z,56.29
2018-10-17T02:06:27.912Z,56.46
2018-10-17T02:08:56.716Z,55.77
2018-10-17T02:11:23.573Z,55.57
2018-10-17T02:13:51.283Z,55.57
2018-10-17T02:16:19.122Z,55.73
2018-10-17T02:18:47.003Z,55.21
2018-10-17T02:21:14.755Z,55.41
2018-10-17T02:23:42.580Z,55.28
2018-10-17T02:26:09.411Z,55.22
2018-10-17T02:28:36.258Z,55.54
2018-10-17T02:31:03.978Z,55.80
2018-10-17T02:33:31.704Z,55.59
2018-10-17T02:35:59.339Z,55.23
2018-10-17T02:38:26.258Z,55.45
2018-10-17T02:40:54.057Z,56.03
2018-10-17T02:43:20.972Z,55.79
2018-10-17T02:45:47.895Z,55.95
2018-10-17T02:48:15.693Z,56.26
2018-10-17T02:50:43.523Z,55.90
2018-10-17T02:53:10.492Z,55.15
2018-10-17T02:55:37.318Z,55.76
2018-10-17T02:58:04.296Z,55.13
2018-10-17T03:00:32.073Z,57.05
2018-10-17T03:02:58.926Z,55.80
2018-10-17T03:05:26.561Z,54.92
2018-10-17T03:07:55.267Z,55.38
2018-10-17T03:10:22.131Z,55.41
2018-10-17T03:12:48.982Z,55.03
2018-10-17T03:15:16.759Z,55.01
2018-10-17T03:17:43.611Z,54.98
2018-10-17T03:20:11.579Z,54.82
2018-10-17T03:22:39.309Z,54.84
2018-10-17T03:25:07.625Z,54.79
2018-10-17T03:27:35.469Z,55.34
2018-10-17T03:30:03.290Z,55.70
2018-10-17T03:32:30.181Z,55.59
2018-10-17T03:34:57.071Z,55.40
2018-10-17T03:37:23.963Z,55.10
2018-10-17T03:39:51.675Z,55.35
2018-10-17T03:42:19.489Z,55.82
2018-10-17T03:44:47.444Z,55.62
2018-10-17T03:47:14.382Z,55.26
2018-10-17T03:49:41.253Z,56.33
2018-10-17T03:52:08.083Z,55.91
2018-10-17T03:54:35.764Z,55.82
2018-10-17T03:57:02.605Z,55.06
2018-10-17T03:59:29.615Z,54.94
2018-10-17T04:01:56.396Z,55.03
2018-10-17T04:04:23.270Z,55.00
2018-10-17T04:06:50.127Z,55.12
2018-10-17T04:09:17.013Z,54.83
2018-10-17T04:11:43.870Z,54.29
2018-10-17T04:14:10.769Z,54.36
2018-10-17T04:16:38.432Z,54.58
2018-10-17T04:19:05.276Z,54.28
2018-10-17T04:21:33.097Z,54.33
2018-10-17T04:24:00.932Z,54.62
2018-10-17T04:26:28.698Z,54.67
2018-10-17T04:28:56.533Z,54.21
2018-10-17T04:31:24.710Z,54.41
2018-10-17T04:33:52.530Z,54.72
2018-10-17T04:36:20.405Z,54.14
2018-10-17T04:38:48.196Z,54.51
2018-10-17T04:41:15.144Z,54.37
2018-10-17T04:43:42.815Z,54.52
2018-10-17T04:46:10.537Z,54.74
2018-10-17T04:48:37.478Z,54.56
2018-10-17T04:51:05.179Z,54.25
2018-10-17T04:53:32.036Z,54.54
2018-10-17T04:55:59.806Z,54.33
2018-10-17T04:58:26.679Z,54.08
2018-10-17T05:00:53.560Z,54.54
2018-10-17T05:03:20.449Z,54.01
2018-10-17T05:05:48.107Z,53.84
2018-10-17T05:08:15.013Z,53.97
2018-10-17T05:10:41.857Z,54.44
2018-10-17T05:13:08.747Z,54.16
2018-10-17T05:15:36.675Z,53.99
2018-10-17T05:18:03.571Z,53.89
2018-10-17T05:20:30.604Z,54.06
2018-10-17T05:22:59.702Z,53.59
2018-10-17T05:25:27.787Z,53.98
2018-10-17T05:27:57.484Z,54.06
2018-10-17T05:30:25.229Z,54.67
2018-10-17T05:32:53.376Z,53.54
2018-10-17T05:35:20.426Z,53.47
2018-10-17T05:37:47.762Z,53.62
2018-10-17T05:40:14.939Z,53.69
2018-10-17T05:42:42.057Z,53.31
2018-10-17T05:45:10.353Z,53.79
2018-10-17T05:47:37.449Z,53.15
2018-10-17T05:50:04.577Z,54.01
2018-10-17T05:52:31.679Z,53.26
2018-10-17T05:54:59.009Z,53.51
2018-10-17T05:57:27.380Z,52.66
2018-10-17T05:59:56.126Z,52.85
2018-10-17T06:02:26.280Z,52.91
2018-10-17T06:04:53.717Z,52.61
2018-10-17T06:07:21.020Z,52.82
2018-10-17T06:09:48.320Z,53.20
2018-10-17T06:12:15.714Z,52.97
2018-10-17T06:14:42.983Z,53.13
2018-10-17T06:17:10.153Z,52.62
2018-10-17T06:19:37.293Z,52.93
2018-10-17T06:22:04.525Z,53.33
2018-10-17T06:24:31.729Z,52.94
2018-10-17T06:26:58.991Z,52.85
2018-10-17T06:29:26.550Z,53.36
2018-10-17T06:31:53.620Z,53.11
2018-10-17T06:34:20.692Z,53.21
2018-10-17T06:36:47.872Z,53.08
2018-10-17T06:39:15.032Z,53.39
2018-10-17T06:41:42.207Z,53.30
2018-10-17T06:44:10.093Z,53.29
2018-10-17T06:46:39.378Z,53.36
2018-10-17T06:49:06.566Z,53.68
2018-10-17T06:51:33.759Z,53.77
2018-10-17T06:54:01.831Z,53.25
2018-10-17T06:56:30.035Z,53.74
2018-10-17T06:58:57.258Z,53.49
2018-10-17T07:01:25.505Z,53.82
2018-10-17T07:03:53.507Z,53.52
2018-10-17T07:06:21.528Z,53.38
2018-10-17T07:08:49.138Z,53.75
2018-10-17T07:11:16.386Z,53.49
2018-10-17T07:13:45.351Z,53.72
2018-10-17T07:16:12.494Z,53.84
2018-10-17T07:18:39.699Z,53.83
2018-10-17T07:21:06.851Z,53.46
2018-10-17T07:23:34.929Z,53.38
2018-10-17T07:26:02.093Z,53.87
2018-10-17T07:28:29.376Z,53.72
2018-10-17T07:30:56.573Z,53.31
2018-10-17T07:33:23.756Z,53.51
2018-10-17T07:35:51.057Z,53.83
2018-10-17T07:38:18.993Z,54.10
2018-10-17T07:40:47.088Z,54.36
2018-10-17T07:43:14.280Z,54.57
2018-10-17T07:45:42.123Z,54.22
2018-10-17T07:48:09.343Z,54.13
2018-10-17T07:50:37.371Z,54.21
2018-10-17T07:53:05.411Z,53.96
2018-10-17T07:55:32.560Z,54.51
2018-10-17T07:58:00.537Z,54.33
2018-10-17T08:00:27.847Z,54.24
2018-10-17T08:02:56.900Z,54.28
2018-10-17T08:05:25.745Z,54.67
2018-10-17T08:07:52.973Z,54.66
2018-10-17T08:10:21.035Z,55.11
2018-10-17T08:12:49.211Z,55.07
2018-10-17T08:15:17.370Z,54.85
2018-10-17T08:17:45.455Z,54.46
2018-10-17T08:20:13.549Z,54.81
2018-10-17T08:22:41.563Z,54.54
2018-10-17T08:25:09.898Z,55.00
2018-10-17T08:27:37.242Z,54.64
2018-10-17T08:30:04.953Z,54.81
2018-10-17T08:32:32.263Z,54.62
2018-10-17T08:34:59.411Z,55.90
2018-10-17T08:37:27.756Z,55.95
2018-10-17T08:39:55.131Z,55.37
2018-10-17T08:42:22.381Z,55.84
2018-10-17T08:44:49.518Z,55.63
2018-10-17T08:47:16.565Z,55.84
2018-10-17T08:49:43.766Z,55.41
2018-10-17T08:52:10.886Z,55.29
2018-10-17T08:54:38.030Z,55.23
2018-10-17T08:57:05.214Z,54.91
2018-10-17T08:59:32.450Z,54.95
2018-10-17T09:01:59.716Z,55.27
2018-10-17T09:04:26.950Z,55.44
2018-10-17T09:06:55.291Z,55.05
2018-10-17T09:09:23.429Z,55.73
2018-10-17T09:11:51.588Z,56.11
2018-10-17T09:14:18.837Z,55.45
2018-10-17T09:16:46.051Z,55.61
2018-10-17T09:19:14.220Z,56.70
2018-10-17T09:21:42.621Z,55.75
2018-10-17T09:24:10.497Z,56.02
2018-10-17T09:26:38.605Z,55.67
2018-10-17T09:29:06.868Z,56.04
2018-10-17T09:31:34.083Z,57.31
2018-10-17T09:34:02.307Z,57.85
2018-10-17T09:36:29.770Z,56.45
2018-10-17T09:38:56.933Z,58.08
2018-10-17T09:41:24.170Z,57.89
2018-10-17T09:43:52.469Z,57.46
2018-10-17T09:46:19.562Z,56.01
2018-10-17T09:48:46.994Z,58.03
2018-10-17T09:51:14.126Z,57.87
2018-10-17T09:53:42.458Z,58.08
2018-10-17T09:56:11.688Z,58.06
2018-10-17T09:58:39.623Z,58.22
2018-10-17T10:01:13.273Z,57.48
2018-10-17T10:03:41.416Z,56.39
2018-10-17T10:06:09.543Z,56.25
2018-10-17T10:08:36.827Z,57.55
2018-10-17T10:11:04.283Z,57.49
2018-10-17T10:13:31.545Z,56.51
2018-10-17T10:15:58.837Z,58.37
2018-10-17T10:18:26.980Z,58.24
2018-10-17T10:20:55.793Z,56.09
2018-10-17T10:23:24.041Z,58.24
2018-10-17T10:25:51.177Z,56.75
2018-10-17T10:28:19.369Z,56.75
2018-10-17T10:30:47.326Z,57.52
2018-10-17T10:33:15.329Z,57.03
2018-10-17T10:35:42.568Z,56.37
2018-10-17T10:38:10.612Z,57.85
2018-10-17T10:40:38.644Z,56.69
2018-10-17T10:43:05.808Z,56.76
2018-10-17T10:45:33.982Z,57.36
2018-10-17T10:48:01.063Z,57.08
2018-10-17T10:50:29.184Z,57.08
2018-10-17T10:52:56.896Z,56.48
2018-10-17T10:55:24.963Z,56.72
2018-10-17T10:57:52.980Z,56.12
2018-10-17T11:00:21.141Z,55.79
2018-10-17T11:02:49.036Z,56.10
2018-10-17T11:05:17.169Z,55.67
2018-10-17T11:07:45.334Z,55.64
2018-10-17T11:10:13.343Z,57.13
2018-10-17T11:12:41.547Z,56.53
2018-10-17T11:15:10.051Z,56.88
2018-10-17T11:17:38.196Z,56.88
2018-10-17T11:20:06.751Z,56.03
2018-10-17T11:22:35.113Z,57.84
2018-10-17T11:25:03.133Z,57.67
2018-10-17T11:27:31.280Z,55.86
2018-10-17T11:29:59.361Z,57.62
2018-10-17T11:32:26.619Z,56.51
2018-10-17T11:34:53.751Z,57.14
2018-10-17T11:37:20.880Z,58.06
2018-10-17T11:39:49.127Z,55.94
2018-10-17T11:42:16.309Z,56.82
2018-10-17T11:44:44.443Z,57.00
2018-10-17T11:47:11.708Z,57.87
2018-10-17T11:49:39.720Z,56.06
2018-10-17T11:52:06.859Z,56.16
2018-10-17T11:54:34.947Z,57.39
2018-10-17T11:57:03.249Z,57.39
2018-10-17T11:59:30.277Z,58.86
2018-10-17T12:01:58.381Z,58.25
2018-10-17T12:04:26.573Z,58.98
2018-10-17T12:06:53.556Z,58.94
2018-10-17T12:09:20.766Z,59.68
2018-10-17T12:11:49.010Z,59.11
2018-10-17T12:14:17.405Z,59.78
2018-10-17T12:16:45.451Z,59.35
2018-10-17T12:19:13.630Z,58.88
2018-10-17T12:21:41.541Z,58.40
2018-10-17T12:24:09.633Z,59.24
2018-10-17T12:26:36.760Z,57.75
2018-10-17T12:29:04.818Z,57.67
2018-10-17T12:31:32.705Z,56.71
2018-10-17T12:34:00.817Z,58.34
2018-10-17T12:36:28.846Z,59.72
2018-10-17T12:38:57.083Z,59.48
2018-10-17T12:41:26.300Z,59.94
2018-10-17T12:43:55.067Z,59.63
2018-10-17T12:46:23.163Z,59.53
2018-10-17T12:48:50.924Z,60.07
2018-10-17T12:51:18.921Z,59.61
2018-10-17T12:53:45.985Z,59.69
2018-10-17T12:56:14.240Z,59.42
2018-10-17T12:58:42.280Z,59.47
2018-10-17T13:01:10.479Z,59.39
2018-10-17T13:03:38.428Z,59.65
2018-10-17T13:06:06.597Z,59.60
2018-10-17T13:08:34.658Z,59.39
2018-10-17T13:11:02.773Z,60.18
2018-10-17T13:13:30.865Z,59.67
2018-10-17T13:15:58.989Z,60.24
2018-10-17T13:18:26.984Z,60.33
2018-10-17T13:20:55.283Z,59.52
2018-10-17T13:23:23.468Z,60.25
2018-10-17T13:25:51.538Z,60.07
2018-10-17T13:28:19.597Z,59.74
2018-10-17T13:30:47.664Z,59.93
2018-10-17T13:33:15.779Z,58.77
2018-10-17T13:35:43.866Z,59.85
2018-10-17T13:38:11.934Z,59.15
2018-10-17T13:40:40.064Z,59.64
2018-10-17T13:43:08.228Z,59.94
2018-10-17T13:45:36.618Z,60.02
2018-10-17T13:48:04.996Z,60.16
2018-10-17T13:50:33.060Z,60.08
2018-10-17T13:53:01.060Z,60.37
2018-10-17T13:55:29.309Z,59.83
2018-10-17T13:57:57.584Z,60.53
2018-10-17T14:00:26.226Z,60.45
2018-10-17T14:02:53.427Z,60.29
2018-10-17T14:05:20.722Z,60.32
2018-10-17T14:07:47.919Z,60.00
2018-10-17T14:10:16.015Z,59.78
2018-10-17T14:12:44.044Z,59.73
2018-10-17T14:15:11.307Z,59.74
2018-10-17T14:17:38.451Z,60.73
2018-10-17T14:20:06.676Z,60.12
2018-10-17T14:22:34.626Z,60.22
2018-10-17T14:25:01.692Z,60.54
2018-10-17T14:27:28.823Z,60.73
2018-10-17T14:29:56.746Z,60.26
2018-10-17T14:32:23.719Z,60.81
2018-10-17T14:34:51.315Z,60.23
2018-10-17T14:37:18.501Z,60.36
2018-10-17T14:39:45.609Z,59.81
2018-10-17T14:42:12.823Z,60.11
2018-10-17T14:44:39.969Z,60.38
2018-10-17T14:47:07.031Z,60.10
2018-10-17T14:49:34.178Z,60.39
2018-10-17T14:52:01.346Z,60.79
2018-10-17T14:54:28.513Z,60.35
2018-10-17T14:56:56.565Z,60.96
2018-10-17T14:59:23.769Z,60.46
2018-10-17T15:01:53.351Z,60.58
2018-10-17T15:04:20.526Z,60.46
2018-10-17T15:06:47.782Z,60.60
2018-10-17T15:09:15.276Z,60.46
2018-10-17T15:11:42.610Z,60.79
2018-10-17T15:14:10.640Z,60.96
2018-10-17T15:16:38.137Z,60.60
2018-10-17T15:19:05.113Z,60.75
2018-10-17T15:21:32.197Z,60.60
2018-10-17T15:23:59.377Z,60.88
2018-10-17T15:26:26.544Z,60.94
2018-10-17T15:28:53.609Z,60.51
2018-10-17T15:31:20.840Z,60.96
2018-10-17T15:33:47.920Z,60.85
2018-10-17T15:36:16.091Z,60.76
2018-10-17T15:38:43.241Z,60.93
2018-10-17T15:41:10.638Z,60.16
2018-10-17T15:43:38.057Z,60.74
2018-10-17T15:46:05.637Z,60.04
2018-10-17T15:48:32.881Z,59.24
2018-10-17T15:51:06.657Z,59.26
2018-10-17T15:53:33.931Z,59.96
2018-10-17T15:56:02.076Z,60.14
2018-10-17T15:58:29.232Z,59.77
2018-10-17T16:00:56.463Z,59.63
2018-10-17T16:03:25.215Z,58.54
2018-10-17T16:05:52.609Z,59.47
2018-10-17T16:08:19.765Z,59.32
2018-10-17T16:10:46.867Z,59.39
2018-10-17T16:13:14.954Z,59.44
2018-10-17T16:15:42.346Z,58.47
2018-10-17T16:18:11.877Z,58.65
2018-10-17T16:20:39.882Z,58.83
2018-10-17T16:23:08.140Z,59.06
2018-10-17T16:25:35.542Z,59.60
2018-10-17T16:28:02.897Z,59.41
2018-10-17T16:30:30.245Z,60.19
2018-10-17T16:32:57.345Z,59.77
2018-10-17T16:35:26.509Z,58.88
2018-10-17T16:37:55.475Z,59.06
2018-10-17T16:40:22.768Z,60.42
2018-10-17T16:42:49.837Z,59.87
2018-10-17T16:45:17.916Z,60.49
2018-10-17T16:47:46.056Z,60.70
2018-10-17T16:50:13.346Z,61.09
2018-10-17T16:52:41.329Z,61.15
2018-10-17T16:55:08.802Z,61.17
2018-10-17T16:57:36.309Z,60.19
2018-10-17T17:00:05.198Z,59.37
2018-10-17T17:02:32.441Z,60.80
2018-10-17T17:05:00.524Z,60.59
2018-10-17T17:07:27.785Z,60.65
2018-10-17T17:09:55.355Z,60.11
2018-10-17T17:12:23.405Z,60.48
2018-10-17T17:14:51.456Z,60.21
2018-10-17T17:17:18.645Z,60.65
2018-10-17T17:19:45.761Z,60.86
2018-10-17T17:22:13.163Z,60.39
2018-10-17T17:24:40.491Z,60.15
2018-10-17T17:27:08.282Z,58.88
2018-10-17T17:29:35.553Z,60.47
2018-10-17T17:32:03.852Z,59.72
2018-10-17T17:34:30.968Z,59.16
2018-10-17T17:36:59.058Z,57.89
2018-10-17T17:39:27.204Z,58.37
2018-10-17T17:41:54.902Z,59.23
2018-10-17T17:44:22.067Z,58.31
2018-10-17T17:46:49.517Z,59.63
2018-10-17T17:49:16.655Z,59.95
2018-10-17T17:51:44.799Z,60.90
2018-10-17T17:54:12.130Z,60.86
2018-10-17T17:56:39.403Z,60.82
2018-10-17T17:59:06.565Z,59.29
2018-10-17T18:01:33.842Z,59.19
2018-10-17T18:04:02.071Z,58.93
2018-10-17T18:06:29.307Z,58.19
2018-10-17T18:08:58.538Z,58.07
2018-10-17T18:11:29.064Z,58.80
2018-10-17T18:13:58.136Z,58.41
2018-10-17T18:16:26.403Z,59.26
2018-10-17T18:18:55.333Z,58.76
2018-10-17T18:21:23.318Z,59.13
2018-10-17T18:23:50.469Z,59.04
2018-10-17T18:26:18.588Z,59.29
2018-10-17T18:28:45.760Z,58.43
2018-10-17T18:31:13.211Z,58.44
2018-10-17T18:33:40.386Z,59.38
2018-10-17T18:36:07.620Z,59.19
2018-10-17T18:38:36.008Z,58.00
2018-10-17T18:41:03.398Z,57.49
2018-10-17T18:43:30.601Z,58.42
2018-10-17T18:45:57.822Z,57.56
2018-10-17T18:48:25.988Z,58.00
2018-10-17T18:50:53.183Z,58.31
2018-10-17T18:53:20.380Z,58.84
2018-10-17T18:55:48.386Z,59.03
2018-10-17T18:58:15.873Z,58.78
2018-10-17T19:00:43.221Z,58.93
2018-10-17T19:03:10.528Z,59.02
2018-10-17T19:05:37.736Z,59.55
2018-10-17T19:08:04.846Z,58.97
2018-10-17T19:10:33.158Z,58.65
2018-10-17T19:13:00.319Z,59.05
2018-10-17T19:15:27.650Z,58.45
2018-10-17T19:17:55.574Z,58.27
2018-10-17T19:20:23.797Z,58.72
2018-10-17T19:22:50.988Z,59.00
2018-10-17T19:25:18.376Z,59.38
2018-10-17T19:27:45.737Z,59.69
2018-10-17T19:30:13.004Z,58.96
2018-10-17T19:32:40.085Z,58.71
2018-10-17T19:35:07.525Z,58.75
2018-10-17T19:37:34.808Z,58.75
2018-10-17T19:40:04.483Z,58.82
2018-10-17T19:42:31.801Z,59.37
2018-10-17T19:44:59.241Z,59.26
2018-10-17T19:47:27.581Z,60.08
2018-10-17T19:49:56.071Z,59.47
2018-10-17T19:52:23.168Z,59.52
2018-10-17T19:54:50.650Z,59.45
2018-10-17T19:57:19.936Z,58.91
2018-10-17T19:59:47.130Z,58.49
2018-10-17T20:02:15.371Z,57.95
2018-10-17T20:04:42.505Z,58.57
2018-10-17T20:07:09.819Z,58.31
2018-10-17T20:09:37.099Z,59.08
2018-10-17T20:13:29.288Z,58.67
2018-10-17T20:15:56.545Z,59.13
2018-10-17T20:18:25.643Z,58.91
2018-10-17T20:20:53.788Z,58.34
2018-10-17T20:23:21.217Z,58.65
2018-10-17T20:25:49.261Z,58.78
2018-10-17T20:28:16.358Z,59.64
2018-10-17T20:30:44.282Z,59.48
2018-10-17T20:33:11.514Z,59.72
2018-10-17T20:35:39.617Z,58.20
2018-10-17T20:38:07.564Z,57.90
2018-10-17T20:40:34.718Z,58.42
2018-10-17T20:43:01.864Z,59.35
2018-10-17T20:45:29.056Z,58.70
2018-10-17T20:47:56.761Z,58.89
2018-10-17T20:50:25.915Z,58.60
2018-10-17T20:52:53.935Z,58.80
2018-10-17T20:55:22.155Z,58.75
2018-10-17T20:57:50.171Z,59.18
2018-10-17T21:00:18.124Z,58.88
2018-10-17T21:02:45.337Z,58.00
2018-10-17T21:05:13.398Z,58.53
2018-10-17T21:07:41.618Z,58.65
2018-10-17T21:10:08.893Z,58.42
2018-10-17T21:12:37.582Z,58.48
2018-10-17T21:15:05.226Z,59.13
2018-10-17T21:17:32.454Z,59.30
2018-10-17T21:20:00.819Z,59.29
2018-10-17T21:22:28.047Z,59.11
2018-10-17T21:24:56.410Z,58.07
2018-10-17T21:27:23.529Z,57.07
2018-10-17T21:29:50.724Z,57.08
2018-10-17T21:32:17.888Z,58.15
2018-10-17T21:34:44.952Z,57.62
2018-10-17T21:37:12.209Z,57.63
2018-10-17T21:39:39.227Z,57.60
2018-10-17T21:42:06.279Z,57.37
2018-10-17T21:44:34.398Z,59.13
2018-10-17T21:47:02.247Z,57.70
2018-10-17T21:49:30.142Z,57.29
2018-10-17T21:51:58.341Z,57.64
2018-10-17T21:54:26.531Z,58.08
2018-10-17T21:56:53.658Z,58.20
2018-10-17T21:59:20.781Z,58.53
2018-10-17T22:01:47.906Z,58.74
2018-10-17T22:04:14.993Z,58.40
2018-10-17T22:06:42.099Z,58.19
2018-10-17T22:09:09.858Z,57.93
2018-10-17T22:11:36.996Z,58.04
2018-10-17T22:14:04.170Z,58.00
2018-10-17T22:16:37.756Z,58.07
2018-10-17T22:19:06.039Z,58.49
2018-10-17T22:21:33.152Z,58.61
2018-10-17T22:24:00.333Z,58.85
2018-10-17T22:26:28.464Z,59.12
2018-10-17T22:28:55.974Z,58.40
2018-10-17T22:31:24.126Z,57.99
2018-10-17T22:33:52.317Z,57.90
2018-10-17T22:36:19.589Z,57.67
2018-10-17T22:38:46.810Z,58.17
2018-10-17T22:41:15.087Z,58.06
2018-10-17T22:43:43.083Z,58.03
2018-10-17T22:46:11.023Z,58.21
2018-10-17T22:48:39.146Z,58.09
2018-10-17T22:51:06.229Z,57.58
2018-10-17T22:53:34.328Z,57.42
2018-10-17T22:56:02.634Z,57.67
2018-10-17T22:58:30.600Z,57.18
2018-10-17T23:00:58.533Z,57.07
2018-10-17T23:03:26.520Z,57.38
2018-10-17T23:05:53.958Z,57.25
2018-10-17T23:08:21.085Z,57.01
2018-10-17T23:10:48.355Z,57.59
2018-10-17T23:13:15.462Z,57.44
2018-10-17T23:15:42.662Z,57.92
2018-10-17T23:18:09.799Z,57.43
2018-10-17T23:20:37.939Z,57.05
2018-10-17T23:23:05.043Z,57.12
2018-10-17T23:25:33.064Z,57.34
2018-10-17T23:28:01.177Z,57.96
2018-10-17T23:30:28.235Z,57.67
2018-10-17T23:32:57.306Z,57.97
2018-10-17T23:35:25.511Z,57.39
2018-10-17T23:37:53.668Z,57.71
2018-10-17T23:40:21.699Z,57.29
2018-10-17T23:42:49.884Z,57.70
2018-10-17T23:45:18.150Z,57.26
2018-10-17T23:47:46.028Z,57.77
2018-10-17T23:50:13.274Z,57.67
2018-10-17T23:52:41.344Z,57.62
2018-10-17T23:55:08.812Z,57.42
2018-10-17T23:57:36.900Z,57.03
